createdAt,value
2023-05-08T00:01:11.448Z,1.10
2023-05-08T00:03:38.935Z,1.40
2023-05-08T00:06:06.503Z,1.52
2023-05-08T00:08:33.763Z,1.20
2023-05-08T00:11:00.955Z,1.10
2023-05-08T00:13:28.255Z,1.10
2023-05-08T00:15:55.487Z,1.35
2023-05-08T00:18:22.687Z,1.33
2023-05-08T00:20:49.896Z,1.13
2023-05-08T00:23:17.278Z,1.40
2023-05-08T00:25:44.475Z,1.30
2023-05-08T00:28:11.677Z,1.23
2023-05-08T00:30:38.880Z,1.25
2023-05-08T00:33:06.127Z,1.05
2023-05-08T00:35:33.608Z,1.10
2023-05-08T00:38:01.392Z,1.00
2023-05-08T00:40:28.654Z,1.00
2023-05-08T00:42:55.886Z,1.30
2023-05-08T00:45:23.055Z,1.23
2023-05-08T00:47:50.909Z,1.23
2023-05-08T00:50:18.901Z,1.00
2023-05-08T00:52:47.081Z,1.00
2023-05-08T00:55:14.417Z,1.10
2023-05-08T00:57:41.718Z,0.90
2023-05-08T01:00:10.630Z,1.30
2023-05-08T01:05:05.843Z,1.02
2023-05-08T01:07:33.197Z,1.20
2023-05-08T01:10:00.372Z,1.17
2023-05-08T01:12:46.547Z,1.10
2023-05-08T01:15:24.373Z,1.17
2023-05-08T01:18:13.049Z,1.20
2023-05-08T01:20:59.596Z,1.00
2023-05-08T01:23:47.918Z,1.20
2023-05-08T01:26:47.939Z,1.00
2023-05-08T01:29:26.978Z,1.13
2023-05-08T01:34:50.384Z,0.95
2023-05-08T01:37:23.853Z,1.02
2023-05-08T01:40:13.444Z,1.05
2023-05-08T01:42:50.835Z,1.15
2023-05-08T01:45:35.650Z,1.17
2023-05-08T01:48:10.825Z,1.20
2023-05-08T01:50:46.146Z,1.02
2023-05-08T01:53:33.895Z,1.10
2023-05-08T01:56:09.455Z,1.00
2023-05-08T01:58:38.349Z,1.20
2023-05-08T02:01:06.087Z,1.02
2023-05-08T02:03:35.607Z,1.30
2023-05-08T02:06:02.978Z,0.98
2023-05-08T02:08:30.715Z,1.38
2023-05-08T02:10:58.725Z,1.10
2023-05-08T02:13:26.331Z,1.08
2023-05-08T02:15:55.657Z,1.10
2023-05-08T02:18:24.301Z,1.10
2023-05-08T02:20:52.349Z,1.20
2023-05-08T02:23:20.644Z,1.35
2023-05-08T02:25:48.453Z,0.90
2023-05-08T02:28:18.920Z,0.90
2023-05-08T02:30:47.300Z,1.10
2023-05-08T02:33:15.212Z,1.23
2023-05-08T02:35:44.921Z,1.10
2023-05-08T02:38:13.068Z,1.20
2023-05-08T02:40:44.487Z,1.20
2023-05-08T02:43:11.705Z,1.10
2023-05-08T02:46:10.045Z,1.00
2023-05-08T02:48:57.356Z,1.02
2023-05-08T02:51:36.582Z,1.20
2023-05-08T02:54:14.657Z,1.23
2023-05-08T02:56:50.508Z,1.10
2023-05-08T02:59:20.521Z,1.27
2023-05-08T03:01:54.366Z,1.45
2023-05-08T03:04:37.873Z,1.23
2023-05-08T03:07:05.260Z,1.00
2023-05-08T03:09:44.604Z,1.17
2023-05-08T03:12:23.675Z,0.93
2023-05-08T03:15:04.778Z,1.08
2023-05-08T03:17:34.062Z,1.08
2023-05-08T03:20:05.656Z,1.23
2023-05-08T03:22:35.090Z,1.05
2023-05-08T03:25:04.882Z,1.25
2023-05-08T03:27:33.748Z,1.15
2023-05-08T03:30:03.295Z,1.08
2023-05-08T03:32:31.556Z,1.17
2023-05-08T03:35:02.636Z,1.10
2023-05-08T03:37:30.031Z,1.20
2023-05-08T03:39:57.520Z,1.10
2023-05-08T03:42:25.147Z,1.20
2023-05-08T03:44:53.245Z,1.10
2023-05-08T03:47:21.920Z,1.00
2023-05-08T03:49:50.351Z,1.10
2023-05-08T03:52:17.711Z,1.08
2023-05-08T03:54:45.032Z,1.05
2023-05-08T03:57:14.799Z,1.00
2023-05-08T04:00:01.574Z,1.30
2023-05-08T04:02:50.773Z,1.13
2023-05-08T04:05:26.105Z,1.05
2023-05-08T04:08:01.001Z,1.40
2023-05-08T04:10:32.136Z,1.33
2023-05-08T04:13:12.637Z,1.23
2023-05-08T04:15:48.427Z,1.20
2023-05-08T04:18:19.016Z,1.10
2023-05-08T04:20:48.747Z,1.08
2023-05-08T04:23:18.939Z,1.23
2023-05-08T04:25:47.683Z,1.10
2023-05-08T04:28:15.991Z,1.13
2023-05-08T04:30:43.392Z,1.50
2023-05-08T04:33:10.995Z,1.15
2023-05-08T04:35:38.234Z,1.13
2023-05-08T04:38:05.538Z,1.23
2023-05-08T04:40:32.750Z,1.10
2023-05-08T04:42:59.923Z,1.10
2023-05-08T04:45:27.261Z,1.25
2023-05-08T04:47:54.452Z,1.42
2023-05-08T04:50:21.641Z,1.17
2023-05-08T04:52:48.918Z,1.27
2023-05-08T04:55:16.166Z,1.20
2023-05-08T04:57:44.561Z,1.15
2023-05-08T05:00:12.391Z,1.17
2023-05-08T05:02:39.611Z,1.23
2023-05-08T05:05:07.600Z,1.10
2023-05-08T05:07:35.078Z,1.08
2023-05-08T05:10:02.317Z,1.00
2023-05-08T05:12:29.647Z,1.30
2023-05-08T05:14:56.975Z,2.67
2023-05-08T05:17:24.438Z,1.90
2023-05-08T05:19:53.527Z,2.00
2023-05-08T05:22:20.911Z,2.00
2023-05-08T05:24:48.112Z,1.67
2023-05-08T05:27:15.352Z,1.95
2023-05-08T05:29:42.515Z,1.92
2023-05-08T05:32:11.495Z,1.50
2023-05-08T05:37:08.758Z,1.90
2023-05-08T05:39:37.742Z,1.98
2023-05-08T05:44:32.080Z,2.65
2023-05-08T05:46:59.320Z,2.97
2023-05-08T05:49:26.700Z,3.63
2023-05-08T05:51:54.008Z,3.60
2023-05-08T05:54:21.376Z,3.63
2023-05-08T05:56:48.665Z,3.15
2023-05-08T05:59:18.472Z,2.45
2023-05-08T06:01:45.736Z,2.55
2023-05-08T06:04:13.055Z,2.42
2023-05-08T06:06:40.277Z,2.50
2023-05-08T06:09:07.465Z,2.63
2023-05-08T06:11:34.648Z,2.30
2023-05-08T06:14:01.846Z,2.38
2023-05-08T06:16:30.504Z,2.13
2023-05-08T06:18:57.977Z,2.03
2023-05-08T06:21:25.262Z,2.10
2023-05-08T06:23:52.678Z,2.10
2023-05-08T06:26:21.561Z,1.95
2023-05-08T06:28:50.549Z,2.45
2023-05-08T06:31:17.846Z,2.08
2023-05-08T06:33:48.397Z,1.80
2023-05-08T06:36:17.810Z,1.83
2023-05-08T06:38:45.101Z,1.95
2023-05-08T06:41:15.084Z,1.80
2023-05-08T06:43:43.174Z,2.67
2023-05-08T06:46:10.535Z,2.20
2023-05-08T06:48:37.813Z,2.22
2023-05-08T06:51:05.163Z,2.35
2023-05-08T06:53:32.466Z,2.28
2023-05-08T06:56:00.313Z,2.28
2023-05-08T06:58:27.790Z,2.38
2023-05-08T07:00:54.984Z,2.20
2023-05-08T07:03:22.654Z,2.35
2023-05-08T07:05:50.430Z,1.85
2023-05-08T07:08:17.617Z,2.00
2023-05-08T07:10:44.806Z,2.28
2023-05-08T07:13:12.074Z,2.03
2023-05-08T07:15:39.308Z,1.92
2023-05-08T07:18:07.092Z,1.80
2023-05-08T07:20:34.786Z,1.50
2023-05-08T07:23:02.068Z,1.73
2023-05-08T07:25:29.266Z,1.85
2023-05-08T07:27:56.478Z,2.22
2023-05-08T07:30:23.937Z,1.73
2023-05-08T07:32:51.274Z,1.60
2023-05-08T07:35:18.468Z,1.50
2023-05-08T07:37:45.785Z,1.42
2023-05-08T07:40:13.050Z,1.30
2023-05-08T07:42:42.251Z,1.60
2023-05-08T07:45:10.829Z,1.45
2023-05-08T07:47:38.744Z,1.50
2023-05-08T07:50:06.723Z,1.70
2023-05-08T07:52:33.918Z,1.90
2023-05-08T07:55:01.346Z,1.38
2023-05-08T07:57:28.753Z,1.70
2023-05-08T08:00:00.914Z,1.38
2023-05-08T08:02:28.397Z,1.40
2023-05-08T08:04:56.243Z,1.55
2023-05-08T08:07:23.765Z,1.42
2023-05-08T08:09:51.212Z,1.80
2023-05-08T08:12:18.628Z,1.17
2023-05-08T08:14:46.621Z,1.30
2023-05-08T08:17:14.126Z,1.45
2023-05-08T08:19:41.456Z,1.40
2023-05-08T08:22:09.073Z,1.40
2023-05-08T08:24:36.635Z,1.50
2023-05-08T08:27:04.212Z,1.52
2023-05-08T08:29:31.824Z,1.20
2023-05-08T08:31:59.073Z,1.67
2023-05-08T08:34:40.471Z,1.50
2023-05-08T08:37:09.954Z,1.70
2023-05-08T08:39:37.448Z,1.52
2023-05-08T08:42:05.036Z,1.80
2023-05-08T08:44:32.307Z,1.70
2023-05-08T08:47:00.535Z,1.70
2023-05-08T08:49:36.613Z,1.20
2023-05-08T08:52:11.895Z,1.65
2023-05-08T08:54:41.414Z,1.48
2023-05-08T08:57:11.641Z,1.50
2023-05-08T08:59:39.550Z,1.30
2023-05-08T09:02:12.658Z,1.50
2023-05-08T09:04:40.001Z,1.48
2023-05-08T09:07:08.634Z,1.40
2023-05-08T09:09:40.811Z,1.50
2023-05-08T09:12:08.866Z,2.22
2023-05-08T09:14:36.226Z,1.60
2023-05-08T09:17:03.526Z,1.70
2023-05-08T09:19:30.893Z,1.40
2023-05-08T09:22:01.546Z,1.83
2023-05-08T09:25:02.262Z,1.75
2023-05-08T09:27:32.466Z,1.30
2023-05-08T09:30:05.269Z,1.50
2023-05-08T09:32:33.969Z,1.52
2023-05-08T09:35:01.893Z,2.25
2023-05-08T09:37:30.032Z,1.45
2023-05-08T09:40:18.364Z,1.27
2023-05-08T09:42:46.333Z,1.80
2023-05-08T09:45:31.006Z,1.40
2023-05-08T09:47:58.592Z,1.25
2023-05-08T09:50:26.170Z,1.30
2023-05-08T09:52:53.582Z,2.03
2023-05-08T09:55:21.002Z,1.40
2023-05-08T09:57:59.068Z,1.83
2023-05-08T10:00:27.922Z,1.63
2023-05-08T10:02:57.721Z,1.60
2023-05-08T10:05:32.244Z,1.35
2023-05-08T10:08:17.546Z,1.58
2023-05-08T10:10:46.627Z,1.70
2023-05-08T10:15:45.783Z,1.50
2023-05-08T10:18:13.278Z,1.52
2023-05-08T10:20:42.411Z,1.55
2023-05-08T10:23:14.080Z,1.58
2023-05-08T10:25:47.424Z,1.50
2023-05-08T10:28:32.808Z,1.60
2023-05-08T10:31:05.523Z,1.25
2023-05-08T10:33:35.395Z,1.67
2023-05-08T10:36:02.779Z,1.50
2023-05-08T10:51:25.445Z,1.52
2023-05-08T10:54:05.762Z,1.60
2023-05-08T10:59:00.196Z,1.60
2023-05-08T11:03:57.850Z,1.50
2023-05-08T11:06:46.540Z,1.35
2023-05-08T11:09:21.961Z,1.60
2023-05-08T11:11:58.227Z,1.48
2023-05-08T11:14:26.114Z,1.33
2023-05-08T11:17:02.216Z,1.75
2023-05-08T11:19:29.696Z,1.55
2023-05-08T11:22:17.261Z,1.60
2023-05-08T11:24:54.536Z,1.35
2023-05-08T11:27:38.044Z,1.73
2023-05-08T11:30:21.461Z,1.77
2023-05-08T11:33:07.517Z,2.00
2023-05-08T11:35:53.196Z,1.60
2023-05-08T11:38:21.854Z,1.50
2023-05-08T11:40:59.301Z,1.60
2023-05-08T11:43:41.714Z,1.65
2023-05-08T11:46:18.222Z,1.67
2023-05-08T11:48:45.603Z,1.63
2023-05-08T11:51:13.918Z,1.30
2023-05-08T11:53:41.161Z,1.20
2023-05-08T11:56:11.403Z,2.00
2023-05-08T11:58:38.657Z,1.75
2023-05-08T12:01:06.183Z,1.77
2023-05-08T12:03:33.626Z,2.00
2023-05-08T12:06:00.954Z,1.45
2023-05-08T12:10:56.962Z,1.70
2023-05-08T12:13:26.665Z,1.42
2023-05-08T12:15:58.633Z,1.42
2023-05-08T12:38:14.515Z,1.60
2023-05-08T12:40:47.663Z,1.85
2023-05-08T12:43:14.860Z,1.60
2023-05-08T12:45:42.952Z,1.40
2023-05-08T12:48:13.031Z,1.80
2023-05-08T12:50:42.568Z,1.60
2023-05-08T12:53:11.958Z,1.50
2023-05-08T12:55:40.917Z,1.80
2023-05-08T13:00:45.183Z,1.27
2023-05-08T13:03:14.043Z,1.73
2023-05-08T13:05:43.283Z,1.98
2023-05-08T13:08:11.215Z,2.00
2023-05-08T13:10:51.910Z,1.63
2023-05-08T13:13:24.532Z,1.92
2023-05-08T13:15:53.328Z,2.05
2023-05-08T13:18:22.379Z,1.67
2023-05-08T13:23:17.047Z,1.52
2023-05-08T13:25:44.335Z,1.80
2023-05-08T13:28:11.924Z,1.60
2023-05-08T13:30:39.371Z,1.88
2023-05-08T14:05:09.849Z,1.40
2023-05-08T14:07:40.664Z,1.80
2023-05-08T14:10:09.475Z,1.42
2023-05-08T14:12:37.806Z,1.60
2023-05-08T14:15:08.449Z,1.65
2023-05-08T14:17:38.431Z,1.52
2023-05-08T14:20:08.702Z,1.55
2023-05-08T14:22:38.446Z,1.80
2023-05-08T14:25:07.647Z,1.52
2023-05-08T14:27:35.652Z,1.50
2023-05-08T14:32:31.527Z,1.60
2023-05-08T14:34:58.838Z,1.67
2023-05-08T14:37:26.675Z,1.73
2023-05-08T14:39:56.382Z,1.65
2023-05-08T14:42:24.792Z,1.50
2023-05-08T14:44:53.235Z,1.35
2023-05-08T14:47:21.989Z,1.52
2023-05-08T14:49:49.769Z,1.20
2023-05-08T14:52:19.226Z,1.40
2023-05-08T14:54:53.877Z,1.60
2023-05-08T14:57:23.506Z,1.30
2023-05-08T14:59:55.278Z,1.50
2023-05-08T15:02:24.475Z,1.45
2023-05-08T15:04:53.480Z,1.75
2023-05-08T15:07:21.755Z,1.48
2023-05-08T15:09:49.127Z,1.40
2023-05-08T15:12:16.389Z,1.75
2023-05-08T15:14:43.755Z,1.50
2023-05-08T15:17:11.408Z,1.88
2023-05-08T15:19:38.630Z,1.35
2023-05-08T15:22:05.995Z,1.65
2023-05-08T15:24:33.312Z,1.92
2023-05-08T15:27:00.805Z,2.00
2023-05-08T15:29:28.217Z,2.70
2023-05-08T15:31:55.705Z,2.38
2023-05-08T15:34:24.540Z,2.85
2023-05-08T15:36:53.651Z,2.40
2023-05-08T15:39:21.091Z,3.10
2023-05-08T15:41:52.978Z,2.95
2023-05-08T15:44:20.194Z,3.08
2023-05-08T15:46:47.469Z,2.83
2023-05-08T15:49:14.874Z,2.63
2023-05-08T15:51:42.082Z,2.72
2023-05-08T15:54:09.661Z,2.35
2023-05-08T15:56:37.241Z,2.65
2023-05-08T15:59:04.526Z,2.60
2023-05-08T16:01:31.926Z,2.38
2023-05-08T16:03:59.126Z,2.20
2023-05-08T16:06:26.389Z,2.08
2023-05-08T16:08:53.725Z,2.28
2023-05-08T16:11:21.691Z,2.03
2023-05-08T16:13:49.186Z,2.17
2023-05-08T16:16:16.495Z,2.17
2023-05-08T16:18:43.733Z,2.10
2023-05-08T16:21:11.939Z,2.10
2023-05-08T16:23:39.607Z,1.85
2023-05-08T16:26:06.809Z,1.80
2023-05-08T16:28:33.993Z,1.90
2023-05-08T16:31:02.223Z,1.83
2023-05-08T16:33:29.481Z,1.90
2023-05-08T16:35:56.654Z,1.70
2023-05-08T16:38:23.814Z,1.90
2023-05-08T16:40:51.074Z,1.90
2023-05-08T16:43:18.236Z,1.75
2023-05-08T16:45:45.438Z,1.70
2023-05-08T16:48:12.669Z,1.80
2023-05-08T16:50:39.899Z,1.92
2023-05-08T16:53:07.065Z,1.70
2023-05-08T16:55:34.256Z,1.88
2023-05-08T16:58:01.493Z,1.65
2023-05-08T17:00:28.698Z,1.63
2023-05-08T17:02:56.261Z,1.50
2023-05-08T17:05:23.588Z,1.92
2023-05-08T17:07:50.928Z,1.67
2023-05-08T17:10:18.138Z,1.40
2023-05-08T17:12:45.390Z,1.90
2023-05-08T17:15:12.822Z,1.35
2023-05-08T17:17:40.202Z,1.33
2023-05-08T17:20:07.964Z,1.67
2023-05-08T17:22:35.392Z,1.67
2023-05-08T17:25:02.697Z,1.30
2023-05-08T17:27:29.854Z,1.50
2023-05-08T17:29:57.045Z,1.67
2023-05-08T17:32:24.308Z,1.70
2023-05-08T17:34:51.545Z,1.80
2023-05-08T17:37:18.773Z,1.70
2023-05-08T17:39:45.953Z,1.23
2023-05-08T17:42:13.158Z,1.52
2023-05-08T17:44:40.458Z,1.45
2023-05-08T17:47:09.096Z,1.50
2023-05-08T17:49:36.325Z,1.55
2023-05-08T17:52:04.837Z,1.38
2023-05-08T17:54:32.045Z,1.75
2023-05-08T17:56:59.219Z,1.70
2023-05-08T17:59:26.373Z,1.60
2023-05-08T18:01:54.498Z,1.20
2023-05-08T18:04:21.758Z,1.40
2023-05-08T18:06:49.477Z,1.25
2023-05-08T18:09:16.721Z,2.10
2023-05-08T18:11:43.949Z,1.23
2023-05-08T18:14:11.171Z,1.30
2023-05-08T18:16:38.464Z,1.40
2023-05-08T18:19:05.738Z,1.60
2023-05-08T18:21:33.766Z,1.40
2023-05-08T18:24:01.305Z,1.27
2023-05-08T18:26:28.501Z,1.30
2023-05-08T18:28:55.802Z,1.40
2023-05-08T18:31:23.110Z,1.48
2023-05-08T18:33:50.327Z,1.15
2023-05-08T18:36:17.526Z,1.20
2023-05-08T18:38:44.725Z,1.50
2023-05-08T18:41:11.951Z,1.35
2023-05-08T18:43:39.429Z,1.20
2023-05-08T18:46:13.599Z,1.17
2023-05-08T18:48:41.258Z,1.50
2023-05-08T18:51:08.611Z,1.30
2023-05-08T18:53:38.509Z,1.30
2023-05-08T18:56:08.946Z,1.63
2023-05-08T18:58:36.168Z,1.13
2023-05-08T19:01:03.383Z,1.35
2023-05-08T19:03:30.704Z,1.08
2023-05-08T19:05:59.035Z,1.55
2023-05-08T19:08:26.342Z,1.40
2023-05-08T19:10:56.016Z,1.30
2023-05-08T19:13:23.493Z,1.35
2023-05-08T19:15:50.841Z,1.42
2023-05-08T19:18:18.139Z,1.20
2023-05-08T19:20:45.356Z,1.30
2023-05-08T19:23:12.544Z,1.10
2023-05-08T19:25:40.008Z,1.20
2023-05-08T19:28:07.266Z,1.20
2023-05-08T19:30:34.491Z,1.40
2023-05-08T19:33:03.828Z,1.20
2023-05-08T19:35:31.073Z,1.30
2023-05-08T19:37:58.374Z,1.20
2023-05-08T19:40:25.535Z,1.52
2023-05-08T19:42:58.795Z,1.20
2023-05-08T19:45:25.936Z,1.13
2023-05-08T19:47:53.270Z,1.40
2023-05-08T19:50:20.584Z,1.13
2023-05-08T19:52:48.658Z,1.30
2023-05-08T19:55:16.781Z,1.17
2023-05-08T19:57:44.051Z,1.20
2023-05-08T20:00:12.016Z,1.20
2023-05-08T20:02:39.684Z,1.20
2023-05-08T20:07:37.433Z,0.90
2023-05-08T20:10:05.053Z,1.20
2023-05-08T20:12:32.436Z,1.08
2023-05-08T20:14:59.648Z,1.10
2023-05-08T20:17:26.976Z,1.10
2023-05-08T20:19:54.236Z,1.10
2023-05-08T20:22:21.464Z,1.33
2023-05-08T20:24:48.684Z,1.10
2023-05-08T20:27:16.147Z,1.10
2023-05-08T20:29:43.404Z,1.23
2023-05-08T20:32:14.688Z,1.13
2023-05-08T20:34:42.279Z,1.05
2023-05-08T20:37:09.672Z,1.00
2023-05-08T20:39:36.898Z,1.10
2023-05-08T20:42:04.156Z,1.10
2023-05-08T20:44:31.618Z,1.20
2023-05-08T20:46:58.834Z,1.05
2023-05-08T20:49:26.354Z,1.23
2023-05-08T20:51:53.610Z,1.00
2023-05-08T20:54:21.505Z,1.10
2023-05-08T20:56:48.726Z,1.02
2023-05-08T20:59:16.732Z,1.40
2023-05-08T21:01:43.993Z,1.17
2023-05-08T21:04:11.282Z,1.10
2023-05-08T21:06:38.575Z,1.27
2023-05-08T21:09:06.967Z,1.00
2023-05-08T21:11:34.607Z,1.20
2023-05-08T21:14:01.834Z,1.10
2023-05-08T21:16:29.049Z,1.27
2023-05-08T21:18:58.434Z,1.30
2023-05-08T21:21:25.882Z,1.10
2023-05-08T21:23:53.466Z,1.08
2023-05-08T21:26:23.346Z,1.50
2023-05-08T21:28:52.389Z,1.58
2023-05-08T21:31:19.759Z,1.70
2023-05-08T21:33:47.284Z,1.70
2023-05-08T21:36:14.581Z,1.60
2023-05-08T21:38:42.435Z,1.73
2023-05-08T21:41:09.982Z,1.60
2023-05-08T21:43:37.512Z,1.67
2023-05-08T21:46:06.209Z,1.73
2023-05-08T21:48:34.106Z,1.33
2023-05-08T21:51:01.850Z,1.73
2023-05-08T21:53:29.262Z,1.30
2023-05-08T21:55:56.460Z,1.60
2023-05-08T21:58:23.639Z,1.50
2023-05-08T22:00:51.293Z,1.75
2023-05-08T22:03:18.981Z,1.50
2023-05-08T22:05:46.252Z,1.25
2023-05-08T22:08:13.425Z,1.70
2023-05-08T22:10:40.798Z,1.70
2023-05-08T22:13:08.276Z,1.60
2023-05-08T22:15:35.942Z,1.73
2023-05-08T22:18:03.523Z,1.63
2023-05-08T22:20:31.106Z,1.50
2023-05-08T22:22:58.278Z,1.45
2023-05-08T22:25:27.062Z,1.48
2023-05-08T22:30:21.609Z,1.38
2023-05-08T22:32:55.269Z,1.63
2023-05-08T22:35:27.596Z,1.50
2023-05-08T22:37:55.482Z,1.70
2023-05-08T22:40:23.066Z,1.50
2023-05-08T22:42:56.346Z,1.38
2023-05-08T22:45:24.213Z,1.70
2023-05-08T22:47:51.817Z,1.95
2023-05-08T22:50:19.289Z,1.58
2023-05-08T22:52:46.834Z,1.75
2023-05-08T22:55:15.533Z,1.70
2023-05-08T22:57:43.013Z,1.70
2023-05-08T23:00:10.764Z,1.90
2023-05-08T23:02:38.362Z,1.70
2023-05-08T23:05:06.671Z,1.42
2023-05-08T23:07:34.140Z,1.70
2023-05-08T23:10:01.475Z,2.10
2023-05-08T23:12:28.697Z,1.80
2023-05-08T23:14:55.920Z,1.90
2023-05-08T23:17:23.435Z,1.75
2023-05-08T23:19:50.966Z,2.05
2023-05-08T23:22:18.150Z,1.65
2023-05-08T23:24:45.373Z,1.85
2023-05-08T23:27:12.814Z,1.90
2023-05-08T23:29:40.272Z,1.60
2023-05-08T23:32:07.780Z,1.92
2023-05-08T23:34:34.986Z,1.55
2023-05-08T23:37:02.597Z,1.73
2023-05-08T23:39:30.111Z,1.67
2023-05-08T23:41:57.515Z,1.63
2023-05-08T23:44:24.966Z,1.50
2023-05-08T23:46:52.295Z,1.58
2023-05-08T23:49:19.490Z,1.65
2023-05-08T23:51:46.661Z,1.60
2023-05-08T23:54:13.860Z,1.77
2023-05-08T23:56:41.056Z,1.75
2023-05-08T23:59:08.240Z,1.40
